Terminal Aerodrome Forecast
Issued by NWS Anchorage, AK

Home | Current Version | Previous Version | Text Only | Print | Product List | Glossary On
Versions: 1 2 3 4 5 6 7 8 9 10 11 12 13 14 15 16 17 18 19 20 21 22 23 24 25 26 27
000
FTAK31 PANC 292125 AAB
TAFANC
TAF AMD
PANC 292125Z 2921/3024 VRB04KT P6SM SCT045 BKN200
     FM300200 16010G18KT P6SM SCT080 SCT200
     FM300700 15005KT P6SM SCT060 BKN120
     FM301200 VRB03KT P6SM SCT050 BKN080
     FM302300 16015G25KT P6SM SCT070 BKN120=

USA.gov is the U.S. government's official web portal to all federal, state and local government web resources and services.